Time;durP1;ratioP1;P1;durP2;ratioP2;P2;SDS_P1;SDS_P2;PMS_P1;PMS_P2;Temp;Humidity;BMP_temperature;BMP_pressure;BME280_temperature;BME280_humidity;BME280_pressure;Samples;Min_cycle;Max_cycle;Signal;HPM_P1;HPM_P2
2021/10/20 00:00:27;;;;;;;25.35;4.13;;;;;;;13.65;100.00;99562.81;5013290;28;20499;-76
2021/10/20 00:02:54;;;;;;;23.63;5.07;;;;;;;13.66;100.00;99558.94;4994717;28;20018;-76
2021/10/20 00:05:20;;;;;;;20.20;5.10;;;;;;;13.66;100.00;99533.50;4979894;28;20116;-76
2021/10/20 00:07:45;;;;;;;25.58;5.30;;;;;;;13.66;100.00;99539.78;4994889;28;20036;-75
2021/10/20 00:10:11;;;;;;;16.10;4.43;;;;;;;13.68;100.00;99548.47;5012916;28;20481;-75
2021/10/20 00:12:36;;;;;;;26.05;5.15;;;;;;;13.68;100.00;99537.53;5012084;28;20022;-75
2021/10/20 00:15:04;;;;;;;24.23;5.13;;;;;;;13.68;100.00;99542.19;4995396;28;20021;-75
2021/10/20 00:17:31;;;;;;;20.75;4.70;;;;;;;13.67;100.00;99535.94;4978792;28;20064;-75
2021/10/20 00:20:00;;;;;;;19.45;5.28;;;;;;;13.67;100.00;99535.13;5012809;28;20333;-75
2021/10/20 00:22:26;;;;;;;21.40;6.03;;;;;;;13.66;100.00;99534.28;5010852;28;20048;-75
2021/10/20 00:24:51;;;;;;;26.95;6.40;;;;;;;13.65;100.00;99531.91;5011886;28;20029;-75
2021/10/20 00:27:17;;;;;;;26.23;6.13;;;;;;;13.66;100.00;99525.28;5012195;28;20527;-75
2021/10/20 00:29:42;;;;;;;24.80;5.25;;;;;;;13.68;100.00;99510.13;4995459;28;20445;-75
2021/10/20 00:32:07;;;;;;;29.35;6.68;;;;;;;13.69;100.00;99517.22;4993963;28;20029;-75
2021/10/20 00:34:33;;;;;;;26.75;7.38;;;;;;;13.71;100.00;99519.63;4994359;28;20486;-75
2021/10/20 00:36:58;;;;;;;33.88;7.13;;;;;;;13.70;100.00;99524.31;4992966;28;20033;-75
2021/10/20 00:39:23;;;;;;;29.42;7.55;;;;;;;13.69;100.00;99528.16;5001236;28;20026;-75
2021/10/20 00:41:52;;;;;;;37.03;7.03;;;;;;;13.65;100.00;99521.75;5012642;28;20389;-75
2021/10/20 00:44:17;;;;;;;29.88;7.32;;;;;;;13.63;100.00;99518.50;4994250;28;20090;-75
2021/10/20 00:46:43;;;;;;;37.83;8.40;;;;;;;13.60;100.00;99521.91;5013070;28;20432;-75
2021/10/20 00:49:08;;;;;;;30.38;7.95;;;;;;;13.59;100.00;99514.03;4994967;28;20025;-76
2021/10/20 00:51:34;;;;;;;31.52;7.35;;;;;;;13.59;100.00;99509.34;5015356;28;20026;-76
2021/10/20 00:54:00;;;;;;;25.92;7.25;;;;;;;13.58;100.00;99502.25;5014129;28;20033;-76
2021/10/20 00:56:26;;;;;;;35.80;8.75;;;;;;;13.58;100.00;99493.25;4998255;28;20520;-76
2021/10/20 00:58:51;;;;;;;31.38;7.45;;;;;;;13.55;100.00;99494.69;5015576;28;20026;-76
2021/10/20 01:01:16;;;;;;;30.25;7.40;;;;;;;13.58;100.00;99493.25;4998838;28;20428;-76
2021/10/20 01:03:43;;;;;;;36.55;9.93;;;;;;;13.59;100.00;99489.41;5015617;28;20026;-76
2021/10/20 01:06:09;;;;;;;28.65;8.25;;;;;;;13.61;100.00;99474.22;4998892;28;20026;-76
2021/10/20 01:08:35;;;;;;;46.05;9.45;;;;;;;13.64;100.00;99464.53;4998171;28;20036;-75
2021/10/20 01:11:02;;;;;;;43.55;9.95;;;;;;;13.64;100.00;99459.91;4979249;28;20031;-76
2021/10/20 01:13:27;;;;;;;35.75;9.02;;;;;;;13.65;100.00;99453.28;4981655;28;20025;-76
2021/10/20 01:15:53;;;;;;;42.72;10.73;;;;;;;13.67;100.00;99467.47;4982661;28;20018;-75
2021/10/20 01:18:18;;;;;;;47.60;10.27;;;;;;;13.66;100.00;99449.41;4997671;28;20033;-75
2021/10/20 01:20:44;;;;;;;58.05;11.23;;;;;;;13.65;100.00;99450.53;4982381;28;20038;-76
2021/10/20 01:23:09;;;;;;;53.38;13.52;;;;;;;13.66;100.00;99443.91;4978719;28;20044;-76
2021/10/20 01:25:35;;;;;;;53.72;14.30;;;;;;;13.69;100.00;99443.25;4990713;28;20026;-76
2021/10/20 01:28:00;;;;;;;48.38;13.25;;;;;;;13.71;100.00;99432.78;5015238;28;20029;-75
2021/10/20 01:30:25;;;;;;;57.17;15.25;;;;;;;13.73;100.00;99440.69;4982017;28;20073;-76
2021/10/20 01:32:51;;;;;;;61.47;14.68;;;;;;;13.72;100.00;99423.47;4978155;28;20030;-75
2021/10/20 01:35:16;;;;;;;52.92;13.35;;;;;;;13.73;100.00;99435.22;4978451;28;20025;-75
2021/10/20 01:37:42;;;;;;;54.58;15.98;;;;;;;13.73;100.00;99425.06;4997760;28;20041;-75
2021/10/20 01:40:08;;;;;;;50.47;14.77;;;;;;;13.74;100.00;99417.63;4994900;28;20026;-75
2021/10/20 01:42:33;;;;;;;53.78;15.57;;;;;;;13.76;100.00;99424.41;4984411;28;20018;-75
2021/10/20 01:44:59;;;;;;;52.60;15.00;;;;;;;13.77;100.00;99420.50;5015988;28;20370;-75
2021/10/20 01:47:24;;;;;;;52.97;16.40;;;;;;;13.79;100.00;99433.91;5014606;28;20026;-76
2021/10/20 01:49:50;;;;;;;59.97;17.23;;;;;;;13.79;100.00;99425.69;5002022;28;20462;-76
2021/10/20 01:52:16;;;;;;;62.63;17.38;;;;;;;13.79;100.00;99422.94;4998252;28;20058;-75
2021/10/20 01:54:41;;;;;;;58.67;17.42;;;;;;;13.79;100.00;99408.44;5012367;28;20037;-75
2021/10/20 01:57:07;;;;;;;62.35;17.10;;;;;;;13.79;100.00;99405.72;5015599;28;20030;-75
2021/10/20 01:59:32;;;;;;;72.75;18.58;;;;;;;13.78;100.00;99396.69;4995874;28;20038;-75
2021/10/20 02:01:57;;;;;;;62.08;17.17;;;;;;;13.77;100.00;99390.38;5014463;28;20034;-75
2021/10/20 02:04:23;;;;;;;61.13;16.50;;;;;;;13.76;100.00;99405.22;5014732;28;20030;-76
2021/10/20 02:06:48;;;;;;;75.07;20.50;;;;;;;13.75;100.00;99386.41;4994374;28;20022;-76
2021/10/20 02:09:14;;;;;;;76.85;20.42;;;;;;;13.71;100.00;99382.69;5009754;28;20072;-75
2021/10/20 02:11:41;;;;;;;55.22;18.52;;;;;;;13.69;100.00;99395.91;5015075;28;20044;-75
2021/10/20 02:14:07;;;;;;;72.47;19.80;;;;;;;13.67;100.00;99382.56;4996596;28;20073;-76
2021/10/20 02:16:33;;;;;;;88.63;21.42;;;;;;;13.65;100.00;99378.53;4996839;28;20058;-76
2021/10/20 02:18:58;;;;;;;79.35;20.25;;;;;;;13.63;100.00;99384.34;5014371;28;20520;-76
2021/10/20 02:21:23;;;;;;;73.20;20.25;;;;;;;13.63;100.00;99365.16;5014820;28;20485;-75
2021/10/20 02:23:49;;;;;;;73.18;21.52;;;;;;;13.62;100.00;99358.09;5013069;28;20030;-75
2021/10/20 02:26:14;;;;;;;77.47;21.63;;;;;;;13.64;100.00;99344.88;5013188;28;20029;-75
2021/10/20 02:28:40;;;;;;;86.80;21.67;;;;;;;13.67;100.00;99349.69;4993064;28;20367;-76
2021/10/20 02:31:05;;;;;;;90.68;24.02;;;;;;;13.69;100.00;99347.41;5004873;28;20033;-76
2021/10/20 02:33:30;;;;;;;63.75;19.15;;;;;;;13.71;100.00;99353.38;5012846;28;20033;-76
2021/10/20 02:35:56;;;;;;;88.05;22.77;;;;;;;13.72;100.00;99344.03;5016891;28;20108;-75
2021/10/20 02:38:21;;;;;;;82.35;22.95;;;;;;;13.73;100.00;99342.09;5018568;28;20040;-76
2021/10/20 02:40:47;;;;;;;87.57;22.85;;;;;;;13.72;100.00;99344.03;5001816;28;20022;-76
2021/10/20 02:43:12;;;;;;;93.35;23.85;;;;;;;13.72;100.00;99341.31;4998174;28;20026;-76
2021/10/20 02:45:37;;;;;;;69.82;20.38;;;;;;;13.72;100.00;99335.81;4998428;28;20029;-76
2021/10/20 02:48:03;;;;;;;72.18;21.33;;;;;;;13.73;100.00;99323.72;5000436;28;20091;-76
2021/10/20 02:50:29;;;;;;;63.80;17.58;;;;;;;13.74;100.00;99317.09;5001196;28;20026;-76
2021/10/20 02:52:56;;;;;;;70.55;20.95;;;;;;;13.75;100.00;99313.25;5015906;28;20034;-75
2021/10/20 02:55:22;;;;;;;81.57;21.65;;;;;;;13.75;100.00;99317.94;5001881;28;20488;-77
2021/10/20 02:57:47;;;;;;;62.90;18.80;;;;;;;13.76;100.00;99320.31;5017958;28;20053;-76
2021/10/20 03:00:13;;;;;;;58.38;17.23;;;;;;;13.75;100.00;99312.44;5016516;28;20087;-76
2021/10/20 03:02:38;;;;;;;79.10;22.00;;;;;;;13.74;100.00;99308.09;5014226;28;20013;-76
2021/10/20 03:05:04;;;;;;;61.22;18.40;;;;;;;13.72;100.00;99302.97;5012529;28;20090;-76
2021/10/20 03:07:31;;;;;;;75.55;19.60;;;;;;;13.73;100.00;99307.28;5014611;28;20026;-76
2021/10/20 03:09:56;;;;;;;71.50;17.38;;;;;;;13.72;100.00;99294.75;4999596;28;20503;-76
2021/10/20 03:12:21;;;;;;;104.40;23.88;;;;;;;13.74;100.00;99289.72;4995931;28;20030;-76
2021/10/20 03:14:47;;;;;;;82.78;18.90;;;;;;;13.74;100.00;99289.72;5012888;28;20101;-76
2021/10/20 03:17:14;;;;;;;97.13;23.48;;;;;;;13.72;100.00;99305.69;5012347;28;20033;-76
2021/10/20 03:19:39;;;;;;;107.85;24.70;;;;;;;13.70;100.00;99285.25;4963296;28;20029;-76
2021/10/20 03:22:05;;;;;;;70.18;19.77;;;;;;;13.68;100.00;99280.09;5013620;28;20042;-76
2021/10/20 03:24:30;;;;;;;70.43;19.42;;;;;;;13.67;100.00;99292.19;5011286;28;20034;-76
2021/10/20 03:26:55;;;;;;;78.18;21.17;;;;;;;13.67;100.00;99278.50;4996143;28;20480;-76
2021/10/20 03:29:21;;;;;;;68.68;19.55;;;;;;;13.65;100.00;99269.81;4995557;28;20026;-76
2021/10/20 03:31:46;;;;;;;64.07;18.00;;;;;;;13.64;100.00;99268.22;5013568;28;20026;-76
2021/10/20 03:34:12;;;;;;;71.85;21.35;;;;;;;13.64;100.00;99268.22;5012844;28;20041;-76
2021/10/20 03:36:37;;;;;;;50.38;15.20;;;;;;;13.65;100.00;99286.22;4963827;28;20042;-76
2021/10/20 03:39:03;;;;;;;78.10;19.38;;;;;;;13.66;100.00;99276.06;4995043;28;20037;-76
2021/10/20 03:41:28;;;;;;;63.80;17.63;;;;;;;13.65;100.00;99261.59;4992847;28;20106;-76
2021/10/20 03:43:53;;;;;;;61.38;18.65;;;;;;;13.62;100.00;99254.03;5009922;28;20477;-76
2021/10/20 03:46:19;;;;;;;65.93;18.60;;;;;;;13.60;100.00;99260.97;5012532;28;20034;-76
2021/10/20 03:48:44;;;;;;;53.53;16.60;;;;;;;13.59;100.00;99254.72;5012934;28;20021;-76
2021/10/20 03:51:09;;;;;;;65.32;17.10;;;;;;;13.59;100.00;99251.97;4979596;28;20036;-77
2021/10/20 03:53:35;;;;;;;60.83;18.30;;;;;;;13.59;100.00;99235.53;5012542;28;20508;-76
2021/10/20 03:56:00;;;;;;;51.42;14.95;;;;;;;13.59;100.00;99243.75;5013273;28;20088;-76
2021/10/20 03:58:26;;;;;;;48.40;16.67;;;;;;;13.59;100.00;99243.75;5012800;28;20029;-76
2021/10/20 04:00:54;;;;;;;64.18;18.90;;;;;;;13.60;100.00;99226.19;4979577;28;20029;-76
2021/10/20 04:03:19;;;;;;;82.47;21.83;;;;;;;13.61;100.00;99211.34;5012242;28;20026;-76
2021/10/20 04:05:45;;;;;;;70.30;18.67;;;;;;;13.61;100.00;99192.19;4995746;28;20033;-76
2021/10/20 04:08:10;;;;;;;67.93;21.08;;;;;;;13.63;100.00;99198.13;5012144;28;20029;-76
2021/10/20 04:10:35;;;;;;;84.03;24.08;;;;;;;13.64;100.00;99213.44;5013318;28;20036;-76
2021/10/20 04:13:01;;;;;;;96.22;25.98;;;;;;;13.65;100.00;99203.28;5013086;28;20367;-76
2021/10/20 04:15:26;;;;;;;77.50;24.83;;;;;;;13.65;100.00;99201.34;5010391;28;20037;-76
2021/10/20 04:17:52;;;;;;;73.53;22.77;;;;;;;13.64;100.00;99197.00;5013206;28;20084;-75
2021/10/20 04:20:18;;;;;;;94.20;25.10;;;;;;;13.66;100.00;99189.25;5012007;28;20030;-75
2021/10/20 04:22:43;;;;;;;91.75;26.17;;;;;;;13.66;100.00;99189.25;5012845;28;20121;-75
2021/10/20 04:25:09;;;;;;;86.97;22.45;;;;;;;13.66;100.00;99191.19;4978413;28;20104;-75
2021/10/20 04:27:35;;;;;;;101.45;27.10;;;;;;;13.67;100.00;99196.34;4995626;28;20084;-75
2021/10/20 04:30:00;;;;;;;125.70;31.90;;;;;;;13.67;100.00;99204.56;4997548;28;20378;-76
2021/10/20 04:32:26;;;;;;;116.15;26.10;;;;;;;13.66;100.00;99189.25;4994787;28;20397;-76
2021/10/20 04:34:51;;;;;;;117.10;29.27;;;;;;;13.66;100.00;99194.72;5011767;28;20424;-74
2021/10/20 04:37:23;;;;;;;101.25;25.08;;;;;;;13.68;100.00;99189.72;5012645;28;20022;-75
2021/10/20 04:39:49;;;;;;;116.70;27.90;;;;;;;13.68;100.00;99180.72;5012113;28;20108;-76
2021/10/20 04:42:15;;;;;;;111.10;28.48;;;;;;;13.67;100.00;99163.47;5012652;28;20353;-75
2021/10/20 04:44:40;;;;;;;113.47;29.17;;;;;;;13.68;100.00;99191.66;4977394;28;20033;-75
2021/10/20 04:47:06;;;;;;;94.28;27.20;;;;;;;13.67;100.00;99173.66;5012707;28;20026;-75
2021/10/20 04:49:31;;;;;;;98.35;27.63;;;;;;;13.69;100.00;99166.66;5011726;28;20025;-76
2021/10/20 04:51:56;;;;;;;85.22;23.58;;;;;;;13.70;100.00;99173.75;5012643;28;20092;-75
2021/10/20 04:54:22;;;;;;;119.70;32.05;;;;;;;13.69;100.00;99161.19;5011666;28;20029;-75
2021/10/20 04:56:48;;;;;;;97.72;28.50;;;;;;;13.69;100.00;99150.25;5012730;28;20026;-75
2021/10/20 04:59:13;;;;;;;117.25;30.15;;;;;;;13.67;100.00;99158.00;5011646;28;20026;-75
2021/10/20 05:01:39;;;;;;;125.15;31.52;;;;;;;13.68;100.00;99148.66;5012406;28;20029;-75
2021/10/20 05:04:04;;;;;;;109.80;30.80;;;;;;;13.69;100.00;99149.44;5011704;28;20037;-75
2021/10/20 05:06:29;;;;;;;105.45;30.83;;;;;;;13.70;100.00;99140.09;5012431;28;20022;-75
2021/10/20 05:08:55;;;;;;;112.07;31.40;;;;;;;13.72;100.00;99130.44;5011528;28;20397;-75
2021/10/20 05:11:20;;;;;;;117.18;30.67;;;;;;;13.72;100.00;99124.94;5010424;28;20030;-77
2021/10/20 05:13:45;;;;;;;117.20;31.40;;;;;;;13.71;100.00;99123.31;4994034;28;20087;-76
2021/10/20 05:16:11;;;;;;;142.10;31.60;;;;;;;13.72;100.00;99122.22;5012702;28;20030;-75
2021/10/20 05:18:36;;;;;;;114.22;29.50;;;;;;;13.70;100.00;99129.94;4993928;28;20022;-75
2021/10/20 05:21:02;;;;;;;155.82;33.03;;;;;;;13.71;100.00;99139.75;5012057;28;20038;-75
2021/10/20 05:23:27;;;;;;;113.68;25.50;;;;;;;13.70;100.00;99119.00;5010799;28;20033;-75
2021/10/20 05:25:52;;;;;;;140.43;31.15;;;;;;;13.69;100.00;99117.38;4993552;28;20026;-75
2021/10/20 05:28:18;;;;;;;85.85;23.67;;;;;;;13.69;100.00;99106.41;5011410;28;20033;-76
2021/10/20 05:30:43;;;;;;;97.43;25.30;;;;;;;13.69;100.00;99105.63;5010556;28;20527;-76
2021/10/20 05:33:09;;;;;;;96.95;22.58;;;;;;;13.67;100.00;99089.56;5011453;28;20030;-76
2021/10/20 05:35:34;;;;;;;108.93;27.98;;;;;;;13.67;100.00;99081.34;5011645;28;20037;-76
2021/10/20 05:37:59;;;;;;;110.53;26.90;;;;;;;13.69;100.00;99089.19;5014740;28;20489;-76
2021/10/20 05:40:25;;;;;;;75.28;20.52;;;;;;;13.70;100.00;99074.38;5012735;28;20030;-76
2021/10/20 05:42:50;;;;;;;72.10;19.95;;;;;;;13.71;100.00;99074.03;4997378;28;20093;-76
2021/10/20 05:45:17;;;;;;;70.95;18.95;;;;;;;13.73;100.00;99062.75;4996282;28;20388;-76
2021/10/20 05:47:42;;;;;;;74.65;20.42;;;;;;;13.74;100.00;99064.34;4997025;28;20093;-76
2021/10/20 05:50:08;;;;;;;60.40;17.98;;;;;;;13.76;100.00;99060.13;4990075;28;20371;-75
2021/10/20 05:52:33;;;;;;;68.45;17.08;;;;;;;13.76;100.00;99067.56;5007494;28;20066;-76
2021/10/20 05:54:59;;;;;;;69.63;17.95;;;;;;;13.76;100.00;99049.19;5013372;28;20034;-76
2021/10/20 05:57:26;;;;;;;57.15;16.50;;;;;;;13.75;100.00;99050.31;5014510;28;20366;-75
2021/10/20 05:59:51;;;;;;;63.78;17.95;;;;;;;13.75;100.00;99044.06;5013319;28;20504;-76
2021/10/20 06:02:17;;;;;;;62.97;16.60;;;;;;;13.73;100.00;99036.16;5014365;28;20026;-76
2021/10/20 06:04:42;;;;;;;65.15;17.88;;;;;;;13.73;100.00;99049.06;5013309;28;20025;-76
2021/10/20 06:07:08;;;;;;;47.30;13.88;;;;;;;13.72;100.00;99061.97;4996795;28;20384;-77
2021/10/20 06:09:36;;;;;;;62.75;15.15;;;;;;;13.72;100.00;99042.78;4995799;28;20473;-77
2021/10/20 06:12:02;;;;;;;69.80;16.48;;;;;;;13.72;100.00;99033.75;5013330;28;20034;-77
2021/10/20 06:14:28;;;;;;;62.30;15.98;;;;;;;13.73;100.00;99036.16;4995946;28;20022;-76
2021/10/20 06:16:54;;;;;;;53.10;14.88;;;;;;;13.72;100.00;99033.75;5014227;28;20527;-76
2021/10/20 06:19:20;;;;;;;68.70;17.70;;;;;;;13.70;100.00;99025.88;4992604;28;20026;-76
2021/10/20 06:21:46;;;;;;;61.13;14.63;;;;;;;13.70;100.00;99036.84;4971281;28;1160667;-77
2021/10/20 06:24:12;;;;;;;59.35;14.30;;;;;;;13.71;100.00;99035.69;4996329;28;20129;-77
2021/10/20 06:26:37;;;;;;;75.93;16.95;;;;;;;13.72;100.00;99028.28;5013883;28;20032;-77
2021/10/20 06:29:04;;;;;;;70.55;16.13;;;;;;;13.73;100.00;99036.16;4995392;28;20033;-77
2021/10/20 06:31:29;;;;;;;79.00;17.05;;;;;;;13.75;100.00;99024.88;5015114;28;20022;-77
2021/10/20 06:33:55;;;;;;;71.32;16.70;;;;;;;13.75;100.00;99019.41;5012793;28;20033;-76
2021/10/20 06:36:28;;;;;;;62.83;15.05;;;;;;;13.74;100.00;99026.81;5014724;28;20022;-76
2021/10/20 06:38:53;;;;;;;55.97;16.52;;;;;;;13.72;100.00;99025.53;5012230;28;20026;-76
2021/10/20 06:41:19;;;;;;;65.15;17.10;;;;;;;13.70;100.00;99025.88;5012604;28;20030;-77
2021/10/20 06:43:45;;;;;;;57.88;13.85;;;;;;;13.71;100.00;99019.25;5014592;28;20030;-76
2021/10/20 06:46:11;;;;;;;68.00;16.55;;;;;;;13.72;100.00;99009.09;4995683;28;20030;-75
2021/10/20 06:48:39;;;;;;;58.33;13.70;;;;;;;13.70;100.00;99003.97;5014268;28;20037;-77
2021/10/20 06:51:05;;;;;;;68.22;15.30;;;;;;;13.69;100.00;99007.84;5013444;28;20030;-75
2021/10/20 06:53:31;;;;;;;53.20;11.82;;;;;;;13.70;100.00;99008.66;4997415;28;20033;-77
2021/10/20 06:55:56;;;;;;;64.68;14.35;;;;;;;13.70;100.00;99000.44;4995810;28;20404;-76
2021/10/20 06:58:22;;;;;;;49.25;11.75;;;;;;;13.68;100.00;99009.00;5014656;28;20037;-75
2021/10/20 07:00:48;;;;;;;48.78;11.88;;;;;;;13.69;100.00;99013.31;4995954;28;20161;-76
2021/10/20 07:03:14;;;;;;;45.80;11.27;;;;;;;13.69;100.00;99012.53;5014128;28;20017;-76
2021/10/20 07:05:40;;;;;;;55.25;14.02;;;;;;;13.69;100.00;99016.06;5013524;28;20500;-75
2021/10/20 07:08:06;;;;;;;49.97;14.02;;;;;;;13.68;100.00;99008.19;5011743;28;20033;-76
2021/10/20 07:10:32;;;;;;;49.80;11.43;;;;;;;13.67;100.00;99010.13;4987977;28;20030;-76
2021/10/20 07:12:57;;;;;;;50.35;11.38;;;;;;;13.65;100.00;98992.44;5014107;28;20432;-75
2021/10/20 07:15:23;;;;;;;49.60;11.85;;;;;;;13.64;100.00;98997.13;5013215;28;20026;-76
2021/10/20 07:17:48;;;;;;;26.58;7.78;;;;;;;13.64;100.00;99005.34;5014152;28;20034;-75
2021/10/20 07:20:14;;;;;;;27.55;8.70;;;;;;;13.63;100.00;99014.69;5013054;28;20025;-76
2021/10/20 07:22:39;;;;;;;48.70;10.75;;;;;;;13.64;100.00;99004.53;5013893;28;20046;-76
2021/10/20 07:25:09;;;;;;;44.13;10.10;;;;;;;13.63;100.00;98992.78;4994429;28;20090;-76
2021/10/20 07:27:35;;;;;;;42.45;9.10;;;;;;;13.63;100.00;99003.72;5014430;28;20141;-76
2021/10/20 07:30:01;;;;;;;30.70;9.10;;;;;;;13.63;100.00;98997.44;4995523;28;20389;-75
2021/10/20 07:32:27;;;;;;;49.17;10.98;;;;;;;13.64;100.00;98999.88;5013692;28;20057;-76
2021/10/20 07:34:53;;;;;;;36.45;8.82;;;;;;;13.65;100.00;98984.22;5012819;28;20422;-77
2021/10/20 07:37:19;;;;;;;38.75;9.65;;;;;;;13.63;100.00;98998.25;5013617;28;20065;-76
2021/10/20 07:39:44;;;;;;;47.67;10.70;;;;;;;13.64;100.00;98993.56;5011610;28;20030;-76
2021/10/20 07:42:10;;;;;;;34.47;9.10;;;;;;;13.64;100.00;98996.31;4995988;28;20021;-76
2021/10/20 07:44:35;;;;;;;43.60;9.68;;;;;;;13.64;100.00;99010.00;5012732;28;20057;-76
2021/10/20 07:47:00;;;;;;;41.92;9.70;;;;;;;13.63;100.00;98998.25;5013577;28;20389;-76
2021/10/20 07:49:26;;;;;;;47.83;10.30;;;;;;;13.63;100.00;99006.47;5012328;28;20044;-76
2021/10/20 07:51:56;;;;;;;51.67;10.85;;;;;;;13.62;100.00;98993.91;5013350;28;20042;-77
2021/10/20 07:54:23;;;;;;;48.05;11.57;;;;;;;13.61;100.00;98986.81;5012488;28;20034;-75
2021/10/20 07:56:49;;;;;;;47.47;10.00;;;;;;;13.60;100.00;98993.44;5001577;28;20080;-76
2021/10/20 07:59:15;;;;;;;38.70;8.57;;;;;;;13.59;100.00;99000.06;4995716;28;20462;-76
2021/10/20 08:01:40;;;;;;;38.53;9.95;;;;;;;13.59;100.00;98986.38;4994825;28;20018;-76
2021/10/20 08:04:06;;;;;;;52.63;9.68;;;;;;;13.57;100.00;98988.66;4995964;28;20022;-76
2021/10/20 08:06:31;;;;;;;45.28;9.27;;;;;;;13.57;100.00;98977.69;5012320;28;20076;-76
2021/10/20 08:08:56;;;;;;;52.58;10.75;;;;;;;13.55;100.00;98971.75;5012323;28;20034;-76
2021/10/20 08:11:22;;;;;;;33.00;7.70;;;;;;;13.56;100.00;98965.16;5011234;28;20025;-76
2021/10/20 08:13:47;;;;;;;39.38;9.38;;;;;;;13.54;100.00;98959.22;5013228;28;20026;-77
2021/10/20 08:16:12;;;;;;;53.63;10.18;;;;;;;13.54;100.00;98961.97;5012467;28;20029;-77
2021/10/20 08:18:39;;;;;;;38.85;8.85;;;;;;;13.55;100.00;98949.84;4995434;28;20018;-77
2021/10/20 08:21:04;;;;;;;55.33;10.73;;;;;;;13.55;100.00;98952.59;5012000;28;20096;-76
2021/10/20 08:23:30;;;;;;;47.25;12.07;;;;;;;13.55;100.00;98947.91;5012000;28;20034;-76
2021/10/20 08:25:56;;;;;;;48.80;10.85;;;;;;;13.56;100.00;98951.47;5012145;28;20030;-76
2021/10/20 08:28:21;;;;;;;45.67;11.20;;;;;;;13.56;100.00;98943.25;4999142;28;20061;-77
2021/10/20 08:30:47;;;;;;;56.03;12.40;;;;;;;13.54;100.00;98940.84;5012037;28;20036;-76
2021/10/20 08:33:13;;;;;;;50.65;10.82;;;;;;;13.54;100.00;98931.84;5012046;28;20108;-76
2021/10/20 08:35:38;;;;;;;53.80;11.48;;;;;;;13.55;100.00;98925.22;5011772;28;20052;-76
2021/10/20 08:38:04;;;;;;;52.25;11.93;;;;;;;13.56;100.00;98904.94;5007253;28;20460;-76
2021/10/20 08:40:34;;;;;;;46.88;10.73;;;;;;;13.58;100.00;98902.63;4989820;28;20030;-75
2021/10/20 08:43:00;;;;;;;38.20;12.85;;;;;;;13.59;100.00;98898.78;4988834;28;20388;-76
2021/10/20 08:45:26;;;;;;;47.55;13.90;;;;;;;13.59;100.00;98890.56;5005942;28;20032;-76
2021/10/20 08:47:52;;;;;;;49.22;13.20;;;;;;;13.60;100.00;98878.47;4956557;28;20030;-76
2021/10/20 08:50:22;;;;;;;51.20;14.57;;;;;;;13.61;100.00;98885.53;4972272;28;20030;-76
2021/10/20 08:52:48;;;;;;;49.72;13.68;;;;;;;13.62;100.00;98870.72;5009816;28;20022;-76
2021/10/20 08:55:14;;;;;;;51.75;13.55;;;;;;;13.64;100.00;98873.91;4988534;28;20473;-77
2021/10/20 08:57:39;;;;;;;52.38;15.00;;;;;;;13.64;100.00;98862.97;5012721;28;20099;-76
2021/10/20 09:00:06;;;;;;;49.28;13.00;;;;;;;13.65;100.00;98859.06;5011374;28;20087;-76
2021/10/20 09:02:36;;;;;;;56.08;13.55;;;;;;;13.67;100.00;98872.44;4995187;28;20018;-76
2021/10/20 09:05:02;;;;;;;47.50;13.18;;;;;;;13.68;100.00;98868.53;5011800;28;20532;-76
2021/10/20 09:07:28;;;;;;;52.90;15.07;;;;;;;13.68;100.00;98874.81;4995213;28;20065;-76
2021/10/20 09:09:53;;;;;;;51.38;15.77;;;;;;;13.69;100.00;98875.59;5010099;28;20037;-76
2021/10/20 09:12:26;;;;;;;56.67;16.23;;;;;;;13.69;100.00;98870.94;5016281;28;20030;-76
2021/10/20 09:14:56;;;;;;;47.60;13.65;;;;;;;13.71;100.00;98871.38;4981659;28;20025;-76
2021/10/20 09:17:22;;;;;;;55.13;14.32;;;;;;;13.70;100.00;98880.75;5016668;28;20053;-76
2021/10/20 09:19:47;;;;;;;45.72;14.65;;;;;;;13.70;100.00;98878.03;5015242;28;20025;-76
2021/10/20 09:22:13;;;;;;;45.55;14.50;;;;;;;13.71;100.00;98870.59;4998190;28;20078;-76
2021/10/20 09:24:40;;;;;;;49.83;12.57;;;;;;;13.71;100.00;98868.66;4998595;28;20477;-76
2021/10/20 09:27:18;;;;;;;47.90;13.43;;;;;;;13.72;100.00;98864.78;4997682;28;20030;-76
2021/10/20 09:29:45;;;;;;;44.40;13.02;;;;;;;13.74;100.00;98857.00;4981859;28;20515;-76
2021/10/20 09:32:10;;;;;;;49.85;14.45;;;;;;;13.75;100.00;98863.31;4975641;28;20034;-76
2021/10/20 09:34:37;;;;;;;57.45;15.50;;;;;;;13.77;100.00;98872.75;5014902;28;20043;-76
2021/10/20 09:37:03;;;;;;;46.42;14.20;;;;;;;13.79;100.00;98864.22;4996254;28;20034;-76
2021/10/20 09:39:29;;;;;;;40.60;13.20;;;;;;;13.81;100.00;98858.41;4977000;28;20489;-76
2021/10/20 09:41:55;;;;;;;49.30;14.13;;;;;;;13.83;100.00;98850.63;4977109;28;20033;-76
2021/10/20 09:44:20;;;;;;;50.95;13.75;;;;;;;13.82;100.00;98849.03;4981841;28;20097;-76
2021/10/20 09:46:47;;;;;;;54.42;16.40;;;;;;;13.83;100.00;98836.94;5014892;28;20029;-76
2021/10/20 09:49:23;;;;;;;53.60;14.27;;;;;;;13.83;100.00;98835.00;4998364;28;20054;-76
2021/10/20 09:51:49;;;;;;;61.28;16.10;;;;;;;13.85;100.00;98829.19;4996964;28;20032;-76
2021/10/20 09:54:24;;;;;;;45.33;15.40;;;;;;;13.84;100.00;98830.31;4996993;28;20078;-76
2021/10/20 09:57:00;;;;;;;47.97;13.43;;;;;;;13.84;100.00;98827.59;5014814;28;20057;-76
2021/10/20 09:59:25;;;;;;;51.83;14.88;;;;;;;13.84;100.00;98819.38;4997880;28;20022;-76
2021/10/20 10:01:51;;;;;;;51.75;15.00;;;;;;;13.83;100.00;98815.03;4993804;28;20081;-76
2021/10/20 10:04:17;;;;;;;50.45;15.52;;;;;;;13.83;100.00;98812.28;4987931;28;20133;-76
2021/10/20 10:06:46;;;;;;;55.38;16.70;;;;;;;13.79;100.00;98814.13;4993595;28;20033;-76
2021/10/20 10:09:11;;;;;;;60.50;14.38;;;;;;;13.78;100.00;98807.84;5015266;28;20030;-76
2021/10/20 10:11:38;;;;;;;51.65;14.15;;;;;;;13.80;100.00;98799.28;4996612;28;20054;-76
2021/10/20 10:14:03;;;;;;;60.63;16.05;;;;;;;13.81;100.00;98790.72;4981587;28;20083;-76
2021/10/20 10:16:29;;;;;;;43.80;15.93;;;;;;;13.84;100.00;98779.09;4980252;28;20353;-76
2021/10/20 10:18:56;;;;;;;48.90;17.02;;;;;;;13.86;100.00;98782.28;4980557;28;20022;-76
2021/10/20 10:21:31;;;;;;;55.53;16.77;;;;;;;13.85;100.00;98774.41;4980052;28;20046;-76
2021/10/20 10:23:57;;;;;;;53.08;16.95;;;;;;;13.85;100.00;98774.41;4985328;28;20117;-76
2021/10/20 10:26:23;;;;;;;52.67;16.08;;;;;;;13.82;100.00;98764.94;4996514;28;20113;-76
2021/10/20 10:29:10;;;;;;;56.55;16.65;;;;;;;13.82;100.00;98775.09;5014980;28;20512;-76
2021/10/20 10:31:43;;;;;;;54.40;16.10;;;;;;;13.82;100.00;98769.63;5014535;28;20029;-76
2021/10/20 10:34:19;;;;;;;60.00;15.48;;;;;;;13.81;100.00;98765.28;5008015;28;20110;-76
2021/10/20 10:36:54;;;;;;;48.60;15.70;;;;;;;13.82;100.00;98764.13;4991737;28;20456;-76
2021/10/20 10:39:19;;;;;;;55.63;17.60;;;;;;;13.84;100.00;98772.81;5014008;28;20252;-76
2021/10/20 10:41:46;;;;;;;58.05;16.65;;;;;;;13.83;100.00;98754.78;5014857;28;20417;-76
2021/10/20 10:44:16;;;;;;;51.58;13.95;;;;;;;13.82;100.00;98764.13;4997125;28;20026;-76
2021/10/20 10:47:18;;;;;;;41.42;13.85;;;;;;;13.83;100.00;98749.28;5014120;28;20084;-76
2021/10/20 10:49:54;;;;;;;49.72;15.20;;;;;;;13.84;100.00;98756.38;4987764;28;20030;-76
2021/10/20 10:52:31;;;;;;;43.97;13.35;;;;;;;13.83;100.00;98750.09;4965754;28;20394;-76
2021/10/20 10:54:57;;;;;;;50.60;14.02;;;;;;;13.83;100.00;98738.34;5000481;28;20080;-76
2021/10/20 10:57:22;;;;;;;49.85;14.23;;;;;;;13.82;100.00;98731.28;5014771;28;20481;-76
2021/10/20 10:59:52;;;;;;;47.85;14.85;;;;;;;13.80;100.00;98728.06;4996057;28;20381;-76
2021/10/20 11:02:39;;;;;;;44.03;15.23;;;;;;;13.77;100.00;98719.41;4997158;28;20442;-76
2021/10/20 11:05:05;;;;;;;43.92;13.32;;;;;;;13.75;100.00;98727.19;5013156;28;20043;-76